Accueil
METAR-TAF:

METAR-TAF

Aéroports :

Base aérienne

Niederstetten, Allemagne

latitude: 49-24N, longitude: 009-58E, altitude: 468 m

Observation

Le bulletin a été fait il y a 17 minutes, à 11:20 UTC
Vent 4 kt de nord-ouest
Température 0°C
Humidité 80%
Pression 1018 hPa
Visibilité 10 km ou plus
Nuages épars à une hauteur de 1100 ft, Cumulus congestus.

METAR: ETHN 181120Z 32004KT 9999 SCT011TCU M00/M03 Q1018 BLU+

Heure: 12:37 (11:37 UTC)

Prévision

Le bulletin a été fait il y a 1 heure et 1 minutes, à 10:36 UTC
Prévision valable du 18 à 09 UTC au 18 à 18 UTC
Vent 10 kt de ouest
Visibilité 10 km ou plus
Nuages fragmentés à une hauteur de 1400 ft
Evoluant progressivement
du 18 à 09 UTC au 18 à 11 UTC
Vent 10 kt de ouest/nord-ouest
Visibilité 10 km ou plus
Nuages épars à une hauteur de 2000 ft

TAF: ETHN 181036Z 1809/1818 28010KT 9999 NSW BKN014 BECMG 1809/1811 30010KT 9999 NSW SCT020 CANCEL 1100Z

Observations et prévisions météorologiques de plus de 4000 aéroports (messages METAR et TAF).

Les stations disponibles sont représentées par des disques jaunes et rouges sur la carte.

Passer la souris dessus pour voir le nom de la station.

Cliquer dessus pour voir les observations et prévisions météorologiques.

Pour changer de carte: cliquez sur les boutons verts avec une croix noire pour zoomer, sur le bouton vert avec un tiret pour effectuer un zoom arrière, ou sur les flèches vertes pour les cartes adjacentes.


METAR-TAF: